ENXP weather

Petrojarl Varg Platform
Norway

Public forecast

Using degrees Celsius for public forecast. Weather courtesy of forecast.io.

Closest aviation weather report (METAR) to Petrojarl Varg Platform

Closest report is Sleipner A Platform, 17.3 nm (32.1 km) N. Retrieved 2020/05/30 10:20 UTC (36 minutes ago):

ENSL 301020Z AUTO 12009KT 0200NDV DU NCD 09/09 Q1031 W08/S3

Closest aviation forecast (TAF) to Petrojarl Varg Platform

Closest forecast is Stavanger Airport Sola, 126.4 nm (234.2 km) ENE. Retrieved 2020/05/30 06:57 UTC (4 hours ago):

TAF ENZV 300500Z 3006/3106 VRB03KT CAVOK BECMG 3008/3010 32010KT BECMG 3018/3020 VRB05KT